sensor_id;sensor_type;location;lat;lon;timestamp;P1;durP1;ratioP1;P2;durP2;ratioP2
17858;SDS011;35426;30.698;104.050;2023-02-02T00:02:10;84.33;;;34.77;;
17858;SDS011;35426;30.698;104.050;2023-02-02T00:04:48;86.97;;;37.37;;
17858;SDS011;35426;30.698;104.050;2023-02-02T00:07:23;83.47;;;37.33;;
17858;SDS011;35426;30.698;104.050;2023-02-02T00:10:01;74.77;;;37.53;;
17858;SDS011;35426;30.698;104.050;2023-02-02T00:15:53;78.03;;;34.83;;
17858;SDS011;35426;30.698;104.050;2023-02-02T00:18:28;77.83;;;36.10;;
17858;SDS011;35426;30.698;104.050;2023-02-02T00:21:07;70.37;;;35.63;;
17858;SDS011;35426;30.698;104.050;2023-02-02T00:23:42;67.50;;;34.73;;
17858;SDS011;35426;30.698;104.050;2023-02-02T00:26:18;66.70;;;35.70;;
17858;SDS011;35426;30.698;104.050;2023-02-02T00:28:55;72.70;;;35.63;;
17858;SDS011;35426;30.698;104.050;2023-02-02T00:31:31;78.80;;;34.87;;
17858;SDS011;35426;30.698;104.050;2023-02-02T00:34:09;68.73;;;35.30;;
17858;SDS011;35426;30.698;104.050;2023-02-02T00:36:52;75.73;;;36.63;;
17858;SDS011;35426;30.698;104.050;2023-02-02T00:39:28;72.53;;;34.93;;
17858;SDS011;35426;30.698;104.050;2023-02-02T00:42:03;71.67;;;34.97;;
17858;SDS011;35426;30.698;104.050;2023-02-02T00:44:39;69.47;;;35.07;;
17858;SDS011;35426;30.698;104.050;2023-02-02T00:47:41;69.67;;;35.43;;
17858;SDS011;35426;30.698;104.050;2023-02-02T00:50:18;69.87;;;35.73;;
17858;SDS011;35426;30.698;104.050;2023-02-02T00:52:56;76.93;;;35.87;;
17858;SDS011;35426;30.698;104.050;2023-02-02T00:55:30;74.97;;;35.80;;
17858;SDS011;35426;30.698;104.050;2023-02-02T00:58:05;74.37;;;35.00;;
17858;SDS011;35426;30.698;104.050;2023-02-02T01:00:41;66.97;;;35.30;;
17858;SDS011;35426;30.698;104.050;2023-02-02T01:03:17;71.93;;;36.23;;
17858;SDS011;35426;30.698;104.050;2023-02-02T01:05:53;73.00;;;36.63;;
17858;SDS011;35426;30.698;104.050;2023-02-02T01:11:35;71.63;;;34.40;;
17858;SDS011;35426;30.698;104.050;2023-02-02T01:14:10;79.20;;;35.30;;
17858;SDS011;35426;30.698;104.050;2023-02-02T01:16:46;82.83;;;36.30;;
17858;SDS011;35426;30.698;104.050;2023-02-02T01:19:21;74.70;;;36.20;;
17858;SDS011;35426;30.698;104.050;2023-02-02T01:21:57;71.97;;;36.60;;
17858;SDS011;35426;30.698;104.050;2023-02-02T01:24:40;77.13;;;36.30;;
17858;SDS011;35426;30.698;104.050;2023-02-02T01:27:54;75.77;;;35.50;;
17858;SDS011;35426;30.698;104.050;2023-02-02T01:30:30;74.37;;;36.77;;
17858;SDS011;35426;30.698;104.050;2023-02-02T01:33:07;85.37;;;37.30;;
17858;SDS011;35426;30.698;104.050;2023-02-02T01:35:47;77.33;;;36.47;;
17858;SDS011;35426;30.698;104.050;2023-02-02T01:38:24;77.57;;;37.63;;
17858;SDS011;35426;30.698;104.050;2023-02-02T01:47:27;77.30;;;36.70;;
17858;SDS011;35426;30.698;104.050;2023-02-02T01:50:07;81.00;;;37.47;;
17858;SDS011;35426;30.698;104.050;2023-02-02T01:52:44;77.10;;;37.90;;
17858;SDS011;35426;30.698;104.050;2023-02-02T01:55:24;82.47;;;39.27;;
17858;SDS011;35426;30.698;104.050;2023-02-02T01:58:04;81.20;;;38.17;;
17858;SDS011;35426;30.698;104.050;2023-02-02T02:00:43;83.77;;;37.47;;
17858;SDS011;35426;30.698;104.050;2023-02-02T02:03:23;75.93;;;37.67;;
17858;SDS011;35426;30.698;104.050;2023-02-02T02:06:08;85.97;;;37.87;;
17858;SDS011;35426;30.698;104.050;2023-02-02T02:08:53;85.43;;;37.57;;
17858;SDS011;35426;30.698;104.050;2023-02-02T02:11:33;85.77;;;39.30;;
17858;SDS011;35426;30.698;104.050;2023-02-02T02:14:14;77.13;;;36.63;;
17858;SDS011;35426;30.698;104.050;2023-02-02T02:17:19;82.27;;;37.27;;
17858;SDS011;35426;30.698;104.050;2023-02-02T02:23:52;73.17;;;35.20;;
17858;SDS011;35426;30.698;104.050;2023-02-02T02:27:31;75.50;;;36.37;;
17858;SDS011;35426;30.698;104.050;2023-02-02T02:30:58;71.60;;;35.77;;
17858;SDS011;35426;30.698;104.050;2023-02-02T02:33:58;74.67;;;35.70;;
17858;SDS011;35426;30.698;104.050;2023-02-02T02:36:42;71.90;;;34.73;;
17858;SDS011;35426;30.698;104.050;2023-02-02T02:39:24;70.73;;;33.40;;
17858;SDS011;35426;30.698;104.050;2023-02-02T02:42:06;72.30;;;33.70;;
17858;SDS011;35426;30.698;104.050;2023-02-02T02:44:46;81.37;;;35.17;;
17858;SDS011;35426;30.698;104.050;2023-02-02T02:47:29;68.80;;;33.97;;
17858;SDS011;35426;30.698;104.050;2023-02-02T02:50:11;68.17;;;33.43;;
17858;SDS011;35426;30.698;104.050;2023-02-02T02:52:55;76.53;;;34.97;;
17858;SDS011;35426;30.698;104.050;2023-02-02T02:55:41;71.70;;;33.60;;
17858;SDS011;35426;30.698;104.050;2023-02-02T02:58:24;66.30;;;33.90;;
17858;SDS011;35426;30.698;104.050;2023-02-02T03:01:11;62.27;;;32.87;;
17858;SDS011;35426;30.698;104.050;2023-02-02T03:04:02;75.03;;;32.53;;
17858;SDS011;35426;30.698;104.050;2023-02-02T03:06:50;64.03;;;32.90;;
17858;SDS011;35426;30.698;104.050;2023-02-02T03:09:31;63.93;;;33.43;;
17858;SDS011;35426;30.698;104.050;2023-02-02T03:12:16;64.97;;;33.50;;
17858;SDS011;35426;30.698;104.050;2023-02-02T03:14:55;60.17;;;34.23;;
17858;SDS011;35426;30.698;104.050;2023-02-02T03:17:34;69.60;;;34.40;;
17858;SDS011;35426;30.698;104.050;2023-02-02T03:20:14;67.33;;;34.07;;
17858;SDS011;35426;30.698;104.050;2023-02-02T03:22:53;69.37;;;34.67;;
17858;SDS011;35426;30.698;104.050;2023-02-02T03:25:32;69.70;;;36.13;;
17858;SDS011;35426;30.698;104.050;2023-02-02T03:28:08;67.23;;;35.00;;
17858;SDS011;35426;30.698;104.050;2023-02-02T03:30:49;72.00;;;34.67;;
17858;SDS011;35426;30.698;104.050;2023-02-02T03:33:30;68.03;;;35.33;;
17858;SDS011;35426;30.698;104.050;2023-02-02T03:36:15;68.63;;;33.70;;
17858;SDS011;35426;30.698;104.050;2023-02-02T03:39:00;70.87;;;34.70;;
17858;SDS011;35426;30.698;104.050;2023-02-02T03:41:39;72.27;;;35.43;;
17858;SDS011;35426;30.698;104.050;2023-02-02T03:44:19;67.20;;;34.37;;
17858;SDS011;35426;30.698;104.050;2023-02-02T03:46:55;63.00;;;32.93;;
17858;SDS011;35426;30.698;104.050;2023-02-02T03:49:32;60.63;;;34.03;;
17858;SDS011;35426;30.698;104.050;2023-02-02T03:52:09;65.47;;;33.40;;
17858;SDS011;35426;30.698;104.050;2023-02-02T03:54:51;64.83;;;33.20;;
17858;SDS011;35426;30.698;104.050;2023-02-02T03:57:27;66.73;;;33.73;;
17858;SDS011;35426;30.698;104.050;2023-02-02T04:00:03;68.00;;;32.80;;
17858;SDS011;35426;30.698;104.050;2023-02-02T04:02:46;63.70;;;33.57;;
17858;SDS011;35426;30.698;104.050;2023-02-02T04:05:28;60.90;;;32.00;;
17858;SDS011;35426;30.698;104.050;2023-02-02T04:08:06;67.50;;;33.43;;
17858;SDS011;35426;30.698;104.050;2023-02-02T04:10:59;62.47;;;32.97;;
17858;SDS011;35426;30.698;104.050;2023-02-02T04:13:38;62.53;;;32.33;;
17858;SDS011;35426;30.698;104.050;2023-02-02T04:16:18;65.07;;;33.10;;
17858;SDS011;35426;30.698;104.050;2023-02-02T04:18:56;69.70;;;33.37;;
17858;SDS011;35426;30.698;104.050;2023-02-02T04:21:36;66.57;;;33.67;;
17858;SDS011;35426;30.698;104.050;2023-02-02T04:24:22;68.27;;;35.80;;
17858;SDS011;35426;30.698;104.050;2023-02-02T04:27:03;76.93;;;34.77;;
17858;SDS011;35426;30.698;104.050;2023-02-02T04:29:42;66.67;;;35.37;;
17858;SDS011;35426;30.698;104.050;2023-02-02T04:32:18;70.57;;;34.80;;
17858;SDS011;35426;30.698;104.050;2023-02-02T04:34:58;74.80;;;35.93;;
17858;SDS011;35426;30.698;104.050;2023-02-02T04:37:48;74.37;;;36.27;;
17858;SDS011;35426;30.698;104.050;2023-02-02T04:40:45;71.77;;;35.57;;
17858;SDS011;35426;30.698;104.050;2023-02-02T04:43:27;69.17;;;35.57;;
17858;SDS011;35426;30.698;104.050;2023-02-02T04:46:05;76.40;;;36.97;;
17858;SDS011;35426;30.698;104.050;2023-02-02T04:48:46;73.77;;;35.27;;
17858;SDS011;35426;30.698;104.050;2023-02-02T04:51:23;71.93;;;37.00;;
17858;SDS011;35426;30.698;104.050;2023-02-02T04:54:02;66.13;;;35.87;;
17858;SDS011;35426;30.698;104.050;2023-02-02T04:56:40;77.33;;;36.57;;
17858;SDS011;35426;30.698;104.050;2023-02-02T04:59:22;72.03;;;37.50;;
17858;SDS011;35426;30.698;104.050;2023-02-02T05:02:01;76.53;;;37.77;;
17858;SDS011;35426;30.698;104.050;2023-02-02T05:04:43;71.30;;;37.87;;
17858;SDS011;35426;30.698;104.050;2023-02-02T05:07:24;76.07;;;39.07;;
17858;SDS011;35426;30.698;104.050;2023-02-02T05:10:02;73.23;;;38.33;;
17858;SDS011;35426;30.698;104.050;2023-02-02T05:12:40;74.77;;;40.23;;
17858;SDS011;35426;30.698;104.050;2023-02-02T05:15:22;74.50;;;40.20;;
17858;SDS011;35426;30.698;104.050;2023-02-02T05:18:02;75.57;;;38.97;;
17858;SDS011;35426;30.698;104.050;2023-02-02T05:20:41;73.90;;;40.20;;
17858;SDS011;35426;30.698;104.050;2023-02-02T05:23:18;78.77;;;39.67;;
17858;SDS011;35426;30.698;104.050;2023-02-02T05:25:57;78.20;;;40.13;;
17858;SDS011;35426;30.698;104.050;2023-02-02T05:28:37;80.20;;;40.93;;
17858;SDS011;35426;30.698;104.050;2023-02-02T05:31:21;77.53;;;40.53;;
17858;SDS011;35426;30.698;104.050;2023-02-02T05:33:58;84.33;;;40.60;;
17858;SDS011;35426;30.698;104.050;2023-02-02T05:36:40;81.33;;;41.63;;
17858;SDS011;35426;30.698;104.050;2023-02-02T05:39:23;74.83;;;39.07;;
17858;SDS011;35426;30.698;104.050;2023-02-02T05:42:00;75.23;;;40.50;;
17858;SDS011;35426;30.698;104.050;2023-02-02T05:44:36;77.17;;;38.27;;
17858;SDS011;35426;30.698;104.050;2023-02-02T05:47:17;80.13;;;40.70;;
17858;SDS011;35426;30.698;104.050;2023-02-02T05:50:02;84.73;;;41.90;;
17858;SDS011;35426;30.698;104.050;2023-02-02T05:52:43;80.20;;;40.77;;
17858;SDS011;35426;30.698;104.050;2023-02-02T05:55:22;73.50;;;41.03;;
17858;SDS011;35426;30.698;104.050;2023-02-02T05:57:58;83.63;;;40.87;;
17858;SDS011;35426;30.698;104.050;2023-02-02T06:00:34;78.70;;;40.50;;
17858;SDS011;35426;30.698;104.050;2023-02-02T06:03:18;79.77;;;41.93;;
17858;SDS011;35426;30.698;104.050;2023-02-02T06:05:58;72.37;;;41.23;;
17858;SDS011;35426;30.698;104.050;2023-02-02T06:08:35;80.77;;;43.23;;
17858;SDS011;35426;30.698;104.050;2023-02-02T06:11:11;85.43;;;41.27;;
17858;SDS011;35426;30.698;104.050;2023-02-02T06:14:00;77.03;;;41.60;;
17858;SDS011;35426;30.698;104.050;2023-02-02T06:16:37;76.27;;;42.40;;
17858;SDS011;35426;30.698;104.050;2023-02-02T06:19:16;81.23;;;42.97;;
17858;SDS011;35426;30.698;104.050;2023-02-02T06:21:55;76.63;;;42.43;;
17858;SDS011;35426;30.698;104.050;2023-02-02T06:24:36;76.80;;;43.57;;
17858;SDS011;35426;30.698;104.050;2023-02-02T06:27:13;77.27;;;42.90;;
17858;SDS011;35426;30.698;104.050;2023-02-02T06:29:53;70.13;;;41.37;;
17858;SDS011;35426;30.698;104.050;2023-02-02T06:32:47;82.43;;;42.00;;
17858;SDS011;35426;30.698;104.050;2023-02-02T06:35:42;81.03;;;42.37;;
17858;SDS011;35426;30.698;104.050;2023-02-02T06:38:19;75.30;;;41.67;;
17858;SDS011;35426;30.698;104.050;2023-02-02T06:41:13;75.50;;;40.80;;
17858;SDS011;35426;30.698;104.050;2023-02-02T06:43:56;79.33;;;41.27;;
17858;SDS011;35426;30.698;104.050;2023-02-02T06:46:33;75.50;;;41.20;;
17858;SDS011;35426;30.698;104.050;2023-02-02T06:49:13;81.10;;;41.90;;
17858;SDS011;35426;30.698;104.050;2023-02-02T06:51:58;73.30;;;41.47;;
17858;SDS011;35426;30.698;104.050;2023-02-02T06:54:37;76.57;;;40.27;;
17858;SDS011;35426;30.698;104.050;2023-02-02T06:57:32;67.57;;;40.10;;
17858;SDS011;35426;30.698;104.050;2023-02-02T07:00:17;80.17;;;42.87;;
17858;SDS011;35426;30.698;104.050;2023-02-02T07:02:55;82.30;;;42.33;;
17858;SDS011;35426;30.698;104.050;2023-02-02T07:05:34;76.33;;;41.47;;
17858;SDS011;35426;30.698;104.050;2023-02-02T07:08:13;81.47;;;42.80;;
17858;SDS011;35426;30.698;104.050;2023-02-02T07:10:51;88.97;;;42.53;;
17858;SDS011;35426;30.698;104.050;2023-02-02T07:13:43;82.83;;;43.53;;
17858;SDS011;35426;30.698;104.050;2023-02-02T07:16:22;75.13;;;42.63;;
17858;SDS011;35426;30.698;104.050;2023-02-02T07:19:00;80.23;;;41.97;;
17858;SDS011;35426;30.698;104.050;2023-02-02T07:21:37;82.57;;;44.53;;
17858;SDS011;35426;30.698;104.050;2023-02-02T07:24:19;76.13;;;42.43;;
17858;SDS011;35426;30.698;104.050;2023-02-02T07:26:57;87.77;;;41.30;;
17858;SDS011;35426;30.698;104.050;2023-02-02T07:29:33;79.73;;;42.37;;
17858;SDS011;35426;30.698;104.050;2023-02-02T07:32:09;74.83;;;42.47;;
17858;SDS011;35426;30.698;104.050;2023-02-02T07:34:49;74.40;;;41.83;;
17858;SDS011;35426;30.698;104.050;2023-02-02T07:37:26;72.83;;;40.83;;
17858;SDS011;35426;30.698;104.050;2023-02-02T07:40:11;83.37;;;43.40;;
17858;SDS011;35426;30.698;104.050;2023-02-02T07:42:54;78.17;;;42.80;;
17858;SDS011;35426;30.698;104.050;2023-02-02T07:46:02;80.40;;;43.33;;
17858;SDS011;35426;30.698;104.050;2023-02-02T07:48:46;75.70;;;43.37;;
17858;SDS011;35426;30.698;104.050;2023-02-02T07:51:25;83.83;;;42.30;;
17858;SDS011;35426;30.698;104.050;2023-02-02T07:54:12;84.13;;;42.87;;
17858;SDS011;35426;30.698;104.050;2023-02-02T07:57:03;75.70;;;40.90;;
17858;SDS011;35426;30.698;104.050;2023-02-02T07:59:45;71.90;;;41.57;;
17858;SDS011;35426;30.698;104.050;2023-02-02T08:02:27;87.10;;;42.63;;
17858;SDS011;35426;30.698;104.050;2023-02-02T08:05:07;78.43;;;41.03;;
17858;SDS011;35426;30.698;104.050;2023-02-02T08:07:48;83.13;;;41.73;;
17858;SDS011;35426;30.698;104.050;2023-02-02T08:10:24;76.30;;;42.33;;
17858;SDS011;35426;30.698;104.050;2023-02-02T08:13:10;77.60;;;41.77;;
17858;SDS011;35426;30.698;104.050;2023-02-02T08:15:57;89.07;;;43.20;;
17858;SDS011;35426;30.698;104.050;2023-02-02T08:18:42;78.80;;;40.47;;
17858;SDS011;35426;30.698;104.050;2023-02-02T08:21:27;79.07;;;40.57;;
17858;SDS011;35426;30.698;104.050;2023-02-02T08:24:06;81.60;;;40.40;;
17858;SDS011;35426;30.698;104.050;2023-02-02T08:26:44;85.87;;;42.07;;
17858;SDS011;35426;30.698;104.050;2023-02-02T08:29:26;79.40;;;42.23;;
17858;SDS011;35426;30.698;104.050;2023-02-02T08:32:02;76.33;;;40.83;;
17858;SDS011;35426;30.698;104.050;2023-02-02T08:34:47;82.40;;;42.03;;
17858;SDS011;35426;30.698;104.050;2023-02-02T08:37:23;82.47;;;41.43;;
17858;SDS011;35426;30.698;104.050;2023-02-02T08:40:04;83.43;;;42.53;;
17858;SDS011;35426;30.698;104.050;2023-02-02T08:42:42;77.67;;;43.23;;
17858;SDS011;35426;30.698;104.050;2023-02-02T08:45:25;73.30;;;40.80;;
17858;SDS011;35426;30.698;104.050;2023-02-02T08:48:33;81.60;;;41.83;;
17858;SDS011;35426;30.698;104.050;2023-02-02T08:51:10;77.87;;;41.77;;
17858;SDS011;35426;30.698;104.050;2023-02-02T08:53:50;81.33;;;41.43;;
17858;SDS011;35426;30.698;104.050;2023-02-02T08:56:26;76.37;;;41.33;;
17858;SDS011;35426;30.698;104.050;2023-02-02T08:59:11;75.73;;;41.50;;
17858;SDS011;35426;30.698;104.050;2023-02-02T09:01:51;70.57;;;40.83;;
17858;SDS011;35426;30.698;104.050;2023-02-02T09:04:29;80.27;;;40.30;;
17858;SDS011;35426;30.698;104.050;2023-02-02T09:07:07;79.07;;;41.53;;
17858;SDS011;35426;30.698;104.050;2023-02-02T09:09:45;79.73;;;41.97;;
17858;SDS011;35426;30.698;104.050;2023-02-02T09:12:25;73.73;;;40.23;;
17858;SDS011;35426;30.698;104.050;2023-02-02T09:15:02;73.33;;;40.53;;
17858;SDS011;35426;30.698;104.050;2023-02-02T09:17:46;72.00;;;39.60;;
17858;SDS011;35426;30.698;104.050;2023-02-02T09:20:27;82.33;;;41.40;;
17858;SDS011;35426;30.698;104.050;2023-02-02T09:23:10;71.03;;;41.20;;
17858;SDS011;35426;30.698;104.050;2023-02-02T09:25:53;75.87;;;39.77;;
17858;SDS011;35426;30.698;104.050;2023-02-02T09:28:31;80.17;;;41.33;;
17858;SDS011;35426;30.698;104.050;2023-02-02T09:31:10;80.00;;;39.50;;
17858;SDS011;35426;30.698;104.050;2023-02-02T09:33:52;80.77;;;39.37;;
17858;SDS011;35426;30.698;104.050;2023-02-02T09:36:33;80.07;;;41.27;;
17858;SDS011;35426;30.698;104.050;2023-02-02T09:39:11;76.73;;;39.40;;
17858;SDS011;35426;30.698;104.050;2023-02-02T09:47:51;79.50;;;41.00;;
17858;SDS011;35426;30.698;104.050;2023-02-02T09:50:39;79.20;;;40.80;;
17858;SDS011;35426;30.698;104.050;2023-02-02T09:53:32;70.50;;;39.93;;
17858;SDS011;35426;30.698;104.050;2023-02-02T09:56:23;72.00;;;39.03;;
17858;SDS011;35426;30.698;104.050;2023-02-02T09:59:06;80.90;;;40.70;;
17858;SDS011;35426;30.698;104.050;2023-02-02T10:01:52;78.53;;;39.90;;
17858;SDS011;35426;30.698;104.050;2023-02-02T10:04:34;78.63;;;40.93;;
17858;SDS011;35426;30.698;104.050;2023-02-02T10:07:18;84.13;;;41.57;;
17858;SDS011;35426;30.698;104.050;2023-02-02T10:10:00;85.80;;;41.53;;
17858;SDS011;35426;30.698;104.050;2023-02-02T10:12:45;85.20;;;42.87;;
17858;SDS011;35426;30.698;104.050;2023-02-02T10:15:32;80.17;;;41.43;;
17858;SDS011;35426;30.698;104.050;2023-02-02T10:18:14;82.33;;;42.33;;
17858;SDS011;35426;30.698;104.050;2023-02-02T10:20:58;85.07;;;41.70;;
17858;SDS011;35426;30.698;104.050;2023-02-02T10:23:39;87.63;;;43.07;;
17858;SDS011;35426;30.698;104.050;2023-02-02T10:26:19;81.67;;;42.60;;
17858;SDS011;35426;30.698;104.050;2023-02-02T10:29:15;82.30;;;42.23;;
17858;SDS011;35426;30.698;104.050;2023-02-02T10:32:05;89.13;;;43.20;;
17858;SDS011;35426;30.698;104.050;2023-02-02T10:35:04;85.90;;;43.50;;
17858;SDS011;35426;30.698;104.050;2023-02-02T10:38:09;87.40;;;43.83;;
17858;SDS011;35426;30.698;104.050;2023-02-02T10:40:57;91.90;;;44.27;;
17858;SDS011;35426;30.698;104.050;2023-02-02T10:43:48;84.33;;;43.97;;
17858;SDS011;35426;30.698;104.050;2023-02-02T10:46:33;89.23;;;43.90;;
17858;SDS011;35426;30.698;104.050;2023-02-02T10:49:18;84.23;;;43.83;;
17858;SDS011;35426;30.698;104.050;2023-02-02T10:52:03;86.93;;;44.67;;
17858;SDS011;35426;30.698;104.050;2023-02-02T10:54:54;88.37;;;45.57;;
17858;SDS011;35426;30.698;104.050;2023-02-02T10:57:52;94.67;;;45.07;;
17858;SDS011;35426;30.698;104.050;2023-02-02T11:00:46;100.83;;;45.30;;
17858;SDS011;35426;30.698;104.050;2023-02-02T11:03:41;88.47;;;45.17;;
17858;SDS011;35426;30.698;104.050;2023-02-02T11:06:45;90.50;;;47.13;;
17858;SDS011;35426;30.698;104.050;2023-02-02T11:09:23;97.87;;;46.43;;
17858;SDS011;35426;30.698;104.050;2023-02-02T11:12:09;107.30;;;48.07;;
17858;SDS011;35426;30.698;104.050;2023-02-02T11:15:01;97.43;;;44.83;;
17858;SDS011;35426;30.698;104.050;2023-02-02T11:17:44;94.80;;;46.47;;
17858;SDS011;35426;30.698;104.050;2023-02-02T11:20:22;112.23;;;48.57;;
17858;SDS011;35426;30.698;104.050;2023-02-02T11:23:10;102.97;;;48.73;;
17858;SDS011;35426;30.698;104.050;2023-02-02T11:25:59;93.13;;;47.07;;
17858;SDS011;35426;30.698;104.050;2023-02-02T11:28:49;101.23;;;49.30;;
17858;SDS011;35426;30.698;104.050;2023-02-02T11:35:12;101.70;;;49.53;;
17858;SDS011;35426;30.698;104.050;2023-02-02T11:38:08;106.97;;;50.27;;
17858;SDS011;35426;30.698;104.050;2023-02-02T11:41:08;100.67;;;49.20;;
17858;SDS011;35426;30.698;104.050;2023-02-02T11:43:48;93.73;;;47.50;;
17858;SDS011;35426;30.698;104.050;2023-02-02T11:46:40;103.97;;;48.77;;
17858;SDS011;35426;30.698;104.050;2023-02-02T11:49:19;94.50;;;46.97;;
17858;SDS011;35426;30.698;104.050;2023-02-02T11:51:57;103.13;;;49.83;;
17858;SDS011;35426;30.698;104.050;2023-02-02T11:54:46;105.43;;;49.77;;
17858;SDS011;35426;30.698;104.050;2023-02-02T11:57:24;108.77;;;51.43;;
17858;SDS011;35426;30.698;104.050;2023-02-02T12:00:16;103.10;;;50.47;;
17858;SDS011;35426;30.698;104.050;2023-02-02T12:02:59;101.83;;;50.40;;
17858;SDS011;35426;30.698;104.050;2023-02-02T12:06:00;102.77;;;49.27;;
17858;SDS011;35426;30.698;104.050;2023-02-02T12:08:56;96.50;;;47.40;;
17858;SDS011;35426;30.698;104.050;2023-02-02T12:11:43;99.47;;;49.20;;
17858;SDS011;35426;30.698;104.050;2023-02-02T12:14:33;104.17;;;49.00;;
17858;SDS011;35426;30.698;104.050;2023-02-02T12:17:28;107.07;;;51.73;;
17858;SDS011;35426;30.698;104.050;2023-02-02T12:20:19;114.73;;;52.60;;
17858;SDS011;35426;30.698;104.050;2023-02-02T12:23:09;106.23;;;49.77;;
17858;SDS011;35426;30.698;104.050;2023-02-02T12:26:07;113.73;;;51.30;;
17858;SDS011;35426;30.698;104.050;2023-02-02T12:32:08;105.43;;;50.23;;
17858;SDS011;35426;30.698;104.050;2023-02-02T12:38:13;110.77;;;51.93;;
17858;SDS011;35426;30.698;104.050;2023-02-02T12:41:03;110.07;;;51.33;;
17858;SDS011;35426;30.698;104.050;2023-02-02T12:43:59;113.70;;;50.53;;
17858;SDS011;35426;30.698;104.050;2023-02-02T12:46:46;104.03;;;48.77;;
17858;SDS011;35426;30.698;104.050;2023-02-02T12:49:36;112.27;;;51.63;;
17858;SDS011;35426;30.698;104.050;2023-02-02T12:52:39;119.37;;;51.10;;
17858;SDS011;35426;30.698;104.050;2023-02-02T12:55:33;105.17;;;51.70;;
17858;SDS011;35426;30.698;104.050;2023-02-02T12:58:27;112.80;;;52.97;;
17858;SDS011;35426;30.698;104.050;2023-02-02T13:01:19;108.03;;;49.43;;
17858;SDS011;35426;30.698;104.050;2023-02-02T13:04:45;110.53;;;53.23;;
17858;SDS011;35426;30.698;104.050;2023-02-02T13:07:33;121.57;;;54.17;;
17858;SDS011;35426;30.698;104.050;2023-02-02T13:10:16;118.77;;;55.17;;
17858;SDS011;35426;30.698;104.050;2023-02-02T13:13:03;114.50;;;55.57;;
17858;SDS011;35426;30.698;104.050;2023-02-02T13:15:46;125.50;;;55.20;;
17858;SDS011;35426;30.698;104.050;2023-02-02T13:18:30;127.73;;;56.77;;
17858;SDS011;35426;30.698;104.050;2023-02-02T13:21:17;112.73;;;54.57;;
17858;SDS011;35426;30.698;104.050;2023-02-02T13:24:03;127.33;;;55.50;;
17858;SDS011;35426;30.698;104.050;2023-02-02T13:26:50;117.57;;;53.90;;
17858;SDS011;35426;30.698;104.050;2023-02-02T13:29:40;115.23;;;54.63;;
17858;SDS011;35426;30.698;104.050;2023-02-02T13:32:29;119.70;;;55.10;;
17858;SDS011;35426;30.698;104.050;2023-02-02T13:35:12;114.90;;;55.17;;
17858;SDS011;35426;30.698;104.050;2023-02-02T13:37:56;124.60;;;54.73;;
17858;SDS011;35426;30.698;104.050;2023-02-02T13:40:42;111.57;;;54.53;;
17858;SDS011;35426;30.698;104.050;2023-02-02T13:43:36;115.87;;;54.27;;
17858;SDS011;35426;30.698;104.050;2023-02-02T13:46:33;116.07;;;54.27;;
17858;SDS011;35426;30.698;104.050;2023-02-02T13:49:16;107.93;;;52.80;;
17858;SDS011;35426;30.698;104.050;2023-02-02T13:52:01;110.73;;;54.03;;
17858;SDS011;35426;30.698;104.050;2023-02-02T13:54:56;111.50;;;53.30;;
17858;SDS011;35426;30.698;104.050;2023-02-02T14:01:10;110.47;;;54.80;;
17858;SDS011;35426;30.698;104.050;2023-02-02T14:07:09;115.60;;;54.90;;
17858;SDS011;35426;30.698;104.050;2023-02-02T14:10:01;115.43;;;55.03;;
17858;SDS011;35426;30.698;104.050;2023-02-02T14:12:46;126.07;;;55.07;;
17858;SDS011;35426;30.698;104.050;2023-02-02T14:15:36;118.13;;;56.00;;
17858;SDS011;35426;30.698;104.050;2023-02-02T14:28:44;120.77;;;56.93;;
17858;SDS011;35426;30.698;104.050;2023-02-02T14:45:25;114.77;;;55.30;;
17858;SDS011;35426;30.698;104.050;2023-02-02T14:48:22;114.77;;;55.63;;
17858;SDS011;35426;30.698;104.050;2023-02-02T14:51:02;113.43;;;56.60;;
17858;SDS011;35426;30.698;104.050;2023-02-02T14:53:50;117.43;;;55.00;;
17858;SDS011;35426;30.698;104.050;2023-02-02T14:56:41;112.23;;;56.00;;
17858;SDS011;35426;30.698;104.050;2023-02-02T14:59:38;115.70;;;56.23;;
17858;SDS011;35426;30.698;104.050;2023-02-02T15:02:19;111.53;;;54.67;;
17858;SDS011;35426;30.698;104.050;2023-02-02T15:08:23;122.17;;;55.90;;
17858;SDS011;35426;30.698;104.050;2023-02-02T15:11:05;124.00;;;56.03;;
17858;SDS011;35426;30.698;104.050;2023-02-02T15:14:11;115.20;;;55.93;;
17858;SDS011;35426;30.698;104.050;2023-02-02T15:16:57;118.33;;;55.93;;
17858;SDS011;35426;30.698;104.050;2023-02-02T15:19:43;121.97;;;56.30;;
17858;SDS011;35426;30.698;104.050;2023-02-02T15:22:26;118.03;;;56.43;;
17858;SDS011;35426;30.698;104.050;2023-02-02T15:25:16;123.67;;;57.30;;
17858;SDS011;35426;30.698;104.050;2023-02-02T15:27:57;123.80;;;56.37;;
17858;SDS011;35426;30.698;104.050;2023-02-02T15:30:44;122.80;;;57.30;;
17858;SDS011;35426;30.698;104.050;2023-02-02T15:33:36;124.40;;;58.13;;
17858;SDS011;35426;30.698;104.050;2023-02-02T15:36:17;114.37;;;57.03;;
17858;SDS011;35426;30.698;104.050;2023-02-02T15:39:00;117.60;;;56.63;;
17858;SDS011;35426;30.698;104.050;2023-02-02T15:41:45;115.13;;;55.83;;
17858;SDS011;35426;30.698;104.050;2023-02-02T15:44:46;122.23;;;56.53;;
17858;SDS011;35426;30.698;104.050;2023-02-02T15:47:26;115.73;;;56.80;;
17858;SDS011;35426;30.698;104.050;2023-02-02T15:50:17;116.93;;;56.33;;
17858;SDS011;35426;30.698;104.050;2023-02-02T15:52:56;120.47;;;56.77;;
17858;SDS011;35426;30.698;104.050;2023-02-02T15:55:41;119.17;;;55.87;;
17858;SDS011;35426;30.698;104.050;2023-02-02T15:58:23;117.33;;;56.70;;
17858;SDS011;35426;30.698;104.050;2023-02-02T16:01:05;116.10;;;56.00;;
17858;SDS011;35426;30.698;104.050;2023-02-02T16:03:55;123.90;;;56.77;;
17858;SDS011;35426;30.698;104.050;2023-02-02T16:06:47;105.17;;;56.23;;
17858;SDS011;35426;30.698;104.050;2023-02-02T16:09:30;120.17;;;56.50;;
17858;SDS011;35426;30.698;104.050;2023-02-02T16:12:12;118.37;;;58.13;;
17858;SDS011;35426;30.698;104.050;2023-02-02T16:14:53;115.03;;;58.07;;
17858;SDS011;35426;30.698;104.050;2023-02-02T16:17:34;129.60;;;59.33;;
17858;SDS011;35426;30.698;104.050;2023-02-02T16:20:13;129.30;;;58.77;;
17858;SDS011;35426;30.698;104.050;2023-02-02T16:22:59;119.87;;;57.17;;
17858;SDS011;35426;30.698;104.050;2023-02-02T16:25:41;119.30;;;57.60;;
17858;SDS011;35426;30.698;104.050;2023-02-02T16:28:23;117.77;;;57.23;;
17858;SDS011;35426;30.698;104.050;2023-02-02T16:31:02;122.97;;;57.60;;
17858;SDS011;35426;30.698;104.050;2023-02-02T16:33:54;119.93;;;58.20;;
17858;SDS011;35426;30.698;104.050;2023-02-02T16:36:31;120.33;;;57.80;;